Terminal Aerodrome Forecast
Issued by NWS Jackson, MS

Home | Current Version | Previous Version | Text Only | Print | Product List | Glossary On
Versions: 1 2 3 4 5 6 7 8 9 10 11 12 13 14 15 16 17 18
000
FTUS44 KJAN 291725
TAFJAN
TAF
KJAN 291725Z 2918/3018 16020G30KT P6SM SCT035 BKN250
     FM292200 15015G25KT P6SM VCTS OVC025CB
     FM300100 15020G27KT P6SM OVC025
     FM301500 19015G20KT P6SM -TSRA OVC025CB=

USA.gov is the U.S. government's official web portal to all federal, state and local government web resources and services.